createdAt,value
2024-02-19T00:01:19.982Z,101991.05
2024-02-19T00:03:48.600Z,101986.92
2024-02-19T00:06:16.093Z,101986.04
2024-02-19T00:08:44.202Z,101983.11
2024-02-19T00:11:11.857Z,101983.13
2024-02-19T00:13:39.946Z,101985.35
2024-02-19T00:16:08.236Z,101985.20
2024-02-19T00:18:37.055Z,101984.67
2024-02-19T00:21:06.207Z,101979.49
2024-02-19T00:23:35.412Z,101977.27
2024-02-19T00:26:03.191Z,101976.23
2024-02-19T00:28:31.393Z,101974.34
2024-02-19T00:30:59.857Z,101974.86
2024-02-19T00:33:27.622Z,101976.41
2024-02-19T00:35:55.092Z,101979.34
2024-02-19T00:38:23.193Z,101977.80
2024-02-19T00:40:50.623Z,101977.64
2024-02-19T00:43:18.284Z,101977.63
2024-02-19T00:45:46.124Z,101977.45
2024-02-19T00:48:13.846Z,101980.39
2024-02-19T00:50:42.737Z,101982.11
2024-02-19T00:53:10.493Z,101980.55
2024-02-19T00:55:37.780Z,101979.52
2024-02-19T00:58:06.040Z,101982.10
2024-02-19T01:00:34.581Z,101978.66
2024-02-19T01:06:12.755Z,101980.38
2024-02-19T01:08:40.307Z,101978.14
2024-02-19T01:11:07.804Z,101977.61
2024-02-19T01:13:35.537Z,101978.98
2024-02-19T01:16:03.675Z,101979.34
2024-02-19T01:18:31.247Z,101976.58
2024-02-19T01:20:58.874Z,101977.79
2024-02-19T01:23:27.570Z,101978.14
2024-02-19T01:25:56.915Z,101984.52
2024-02-19T01:28:24.726Z,101984.86
2024-02-19T01:30:52.229Z,101983.66
2024-02-19T01:33:22.672Z,101988.30
2024-02-19T01:35:50.296Z,101988.83
2024-02-19T01:38:17.649Z,101988.65
2024-02-19T01:40:44.954Z,101988.48
2024-02-19T01:43:13.170Z,101988.30
2024-02-19T01:45:40.638Z,101990.20
2024-02-19T01:48:09.460Z,101990.38
2024-02-19T01:50:37.195Z,101991.23
2024-02-19T01:53:09.790Z,101994.52
2024-02-19T01:55:38.192Z,101999.83
2024-02-19T01:58:07.683Z,101997.25
2024-02-19T02:00:39.198Z,102002.27
2024-02-19T02:03:06.764Z,102001.05
2024-02-19T02:05:34.697Z,102002.77
2024-02-19T02:08:06.717Z,102002.25
2024-02-19T02:10:34.085Z,102005.00
2024-02-19T02:13:02.364Z,102004.13
2024-02-19T02:15:29.706Z,102002.92
2024-02-19T02:17:57.147Z,102005.34
2024-02-19T02:20:25.200Z,102003.61
2024-02-19T02:22:54.160Z,102003.95
2024-02-19T02:25:22.942Z,102005.67
2024-02-19T02:27:50.683Z,102003.26
2024-02-19T02:30:18.530Z,102008.08
2024-02-19T02:32:46.285Z,102010.66
2024-02-19T02:35:16.462Z,102008.92
2024-02-19T02:37:43.822Z,102010.46
2024-02-19T02:40:11.711Z,102009.94
2024-02-19T02:42:39.206Z,102013.71
2024-02-19T02:45:08.046Z,102016.64
2024-02-19T02:47:36.068Z,102019.23
2024-02-19T02:50:03.723Z,102023.36
2024-02-19T02:52:31.102Z,102024.56
2024-02-19T02:54:58.575Z,102022.30
2024-02-19T02:57:26.728Z,102026.79
2024-02-19T02:59:54.528Z,102027.48
2024-02-19T03:02:22.602Z,102025.59
2024-02-19T03:04:50.007Z,102026.27
2024-02-19T03:07:17.988Z,102022.49
2024-02-19T03:09:45.521Z,102021.80
2024-02-19T03:12:12.885Z,102022.66
2024-02-19T03:14:40.441Z,102021.64
2024-02-19T03:17:08.676Z,102022.51
2024-02-19T03:19:36.516Z,102021.14
2024-02-19T03:22:07.259Z,102026.12
2024-02-19T03:24:36.045Z,102026.30
2024-02-19T03:27:05.520Z,102027.15
2024-02-19T03:29:32.897Z,102026.98
2024-02-19T03:32:00.518Z,102028.52
2024-02-19T03:34:28.847Z,102026.80
2024-02-19T03:36:56.573Z,102025.42
2024-02-19T03:39:23.954Z,102024.90
2024-02-19T03:41:51.576Z,102025.92
2024-02-19T03:44:19.026Z,102024.39
2024-02-19T03:46:47.161Z,102022.66
2024-02-19T03:49:14.960Z,102021.13
2024-02-19T03:51:42.654Z,102024.23
2024-02-19T03:54:11.555Z,102025.45
2024-02-19T03:56:39.029Z,102027.51
2024-02-19T03:59:06.458Z,102029.23
2024-02-19T04:01:34.048Z,102027.33
2024-02-19T04:04:01.632Z,102027.81
2024-02-19T04:06:30.304Z,102031.27
2024-02-19T04:08:57.596Z,102030.75
2024-02-19T04:11:24.973Z,102036.08
2024-02-19T04:13:53.080Z,102032.96
2024-02-19T04:16:21.302Z,102038.64
2024-02-19T04:18:49.131Z,102038.98
2024-02-19T04:21:16.583Z,102035.71
2024-02-19T04:23:44.440Z,102037.63
2024-02-19T04:26:12.163Z,102041.60
2024-02-19T04:28:39.490Z,102039.88
2024-02-19T04:31:06.903Z,102041.42
2024-02-19T04:33:34.430Z,102044.70
2024-02-19T04:36:03.188Z,102046.24
2024-02-19T04:38:30.540Z,102052.61
2024-02-19T04:40:57.922Z,102054.16
2024-02-19T04:43:26.144Z,102057.60
2024-02-19T04:45:54.685Z,102059.49
2024-02-19T04:48:22.052Z,102059.67
2024-02-19T04:50:49.413Z,102061.38
2024-02-19T04:53:19.730Z,102060.70
2024-02-19T04:55:47.361Z,102068.61
2024-02-19T04:58:14.847Z,102068.95
2024-02-19T05:00:42.311Z,102071.86
2024-02-19T05:03:10.658Z,102073.92
2024-02-19T05:05:39.492Z,102076.33
2024-02-19T05:08:07.380Z,102071.48
2024-02-19T05:10:34.704Z,102075.27
2024-02-19T05:13:02.204Z,102081.80
2024-02-19T05:15:30.814Z,102081.95
2024-02-19T05:17:58.338Z,102082.96
2024-02-19T05:20:25.984Z,102085.38
2024-02-19T05:22:53.298Z,102087.09
2024-02-19T05:25:21.297Z,102085.73
2024-02-19T05:27:48.719Z,102088.67
2024-02-19T05:30:17.693Z,102089.36
2024-02-19T05:32:45.864Z,102090.41
2024-02-19T05:35:13.938Z,102086.63
2024-02-19T05:37:41.940Z,102086.61
2024-02-19T05:40:09.748Z,102086.94
2024-02-19T05:42:38.208Z,102092.45
2024-02-19T05:45:06.695Z,102087.63
2024-02-19T05:47:36.193Z,102090.22
2024-02-19T05:50:04.005Z,102096.92
2024-02-19T05:52:31.449Z,102094.86
2024-02-19T05:55:00.026Z,102097.96
2024-02-19T05:57:27.884Z,102096.41
2024-02-19T05:59:59.557Z,102100.02
2024-02-19T06:02:27.640Z,102102.27
2024-02-19T06:04:55.309Z,102101.77
2024-02-19T06:07:22.839Z,102101.73
2024-02-19T06:09:50.708Z,102107.06
2024-02-19T06:12:18.921Z,102103.80
2024-02-19T06:14:46.693Z,102108.27
2024-02-19T06:17:14.527Z,102107.42
2024-02-19T06:19:42.881Z,102105.04
2024-02-19T06:22:11.595Z,102105.89
2024-02-19T06:24:39.348Z,102108.13
2024-02-19T06:27:09.600Z,102105.89
2024-02-19T06:29:36.947Z,102101.43
2024-02-19T06:32:04.570Z,102105.58
2024-02-19T06:34:36.004Z,102100.77
2024-02-19T06:38:03.467Z,102106.83
2024-02-19T06:40:31.094Z,102106.29
2024-02-19T06:42:58.497Z,102112.33
2024-02-19T06:45:25.911Z,102112.33
2024-02-19T06:47:54.185Z,102108.90
2024-02-19T06:50:22.299Z,102109.93
2024-02-19T06:52:49.886Z,102112.50
2024-02-19T06:55:18.081Z,102110.62
2024-02-19T06:57:45.776Z,102110.11
2024-02-19T07:00:14.361Z,102113.55
2024-02-19T07:02:41.896Z,102114.95
2024-02-19T07:05:09.891Z,102108.76
2024-02-19T07:07:39.278Z,102110.83
2024-02-19T07:10:07.793Z,102108.92
2024-02-19T07:12:35.193Z,102110.68
2024-02-19T07:15:02.820Z,102111.88
2024-02-19T07:17:31.668Z,102109.82
2024-02-19T07:20:02.659Z,102111.39
2024-02-19T07:22:30.415Z,102113.80
2024-02-19T07:25:09.804Z,102112.25
2024-02-19T07:27:44.358Z,102110.54
2024-02-19T07:30:13.701Z,102111.61
2024-02-19T07:32:41.651Z,102112.85
2024-02-19T07:35:09.304Z,102113.36
2024-02-19T07:37:37.412Z,102117.87
2024-02-19T07:40:05.999Z,102119.94
2024-02-19T07:42:33.603Z,102120.14
2024-02-19T07:45:01.039Z,102114.98
2024-02-19T07:47:29.784Z,102118.60
2024-02-19T07:49:57.356Z,102120.52
2024-02-19T07:52:24.934Z,102122.59
2024-02-19T07:54:52.353Z,102124.15
2024-02-19T07:57:20.444Z,102123.11
2024-02-19T07:59:48.809Z,102122.95
2024-02-19T08:02:16.718Z,102125.53
2024-02-19T08:04:44.743Z,102128.80
2024-02-19T08:07:12.728Z,102130.00
2024-02-19T08:09:40.544Z,102125.66
2024-02-19T08:12:08.171Z,102124.60
2024-02-19T08:14:36.780Z,102124.20
2024-02-19T08:17:06.333Z,102119.67
2024-02-19T08:19:35.565Z,102118.92
2024-02-19T08:22:04.572Z,102124.08
2024-02-19T08:24:32.191Z,102115.61
2024-02-19T08:26:59.979Z,102117.29
2024-02-19T08:29:27.285Z,102119.78
2024-02-19T08:31:55.575Z,102122.56
2024-02-19T08:34:26.201Z,102123.38
2024-02-19T08:36:53.747Z,102123.30
2024-02-19T08:39:21.183Z,102128.95
2024-02-19T08:41:48.557Z,102125.85
2024-02-19T08:44:16.363Z,102127.77
2024-02-19T08:46:44.174Z,102123.27
2024-02-19T08:49:13.014Z,102129.56
2024-02-19T08:51:41.415Z,102129.36
2024-02-19T08:54:09.825Z,102126.02
2024-02-19T08:56:37.256Z,102128.08
2024-02-19T08:59:05.554Z,102124.65
2024-02-19T09:01:33.723Z,102128.34
2024-02-19T09:04:01.477Z,102123.85
2024-02-19T09:06:30.797Z,102127.44
2024-02-19T09:08:59.171Z,102123.64
2024-02-19T09:11:26.896Z,102122.41
2024-02-19T09:13:54.990Z,102122.30
2024-02-19T09:16:22.887Z,102118.77
2024-02-19T09:18:51.830Z,102117.14
2024-02-19T09:21:19.509Z,102117.50
2024-02-19T09:23:49.788Z,102112.98
2024-02-19T09:26:17.163Z,102106.39
2024-02-19T09:28:45.911Z,102110.37
2024-02-19T09:31:13.636Z,102108.33
2024-02-19T09:33:41.149Z,102101.46
2024-02-19T09:36:13.302Z,102100.61
2024-02-19T09:38:41.803Z,102099.79
2024-02-19T09:41:09.556Z,102099.61
2024-02-19T09:43:37.783Z,102099.90
2024-02-19T09:46:09.196Z,102104.95
2024-02-19T09:48:37.448Z,102111.73
2024-02-19T09:51:06.154Z,102112.40
2024-02-19T09:53:35.827Z,102114.53
2024-02-19T09:56:03.282Z,102116.60
2024-02-19T09:58:30.868Z,102112.98
2024-02-19T10:00:58.852Z,102105.22
2024-02-19T10:03:27.757Z,102101.54
2024-02-19T10:05:55.582Z,102106.23
2024-02-19T10:08:25.035Z,102100.00
2024-02-19T10:10:59.095Z,102099.45
2024-02-19T10:13:27.821Z,102094.23
2024-02-19T10:15:55.470Z,102095.88
2024-02-19T10:18:23.808Z,102095.66
2024-02-19T10:20:54.357Z,102091.40
2024-02-19T10:23:24.106Z,102088.49
2024-02-19T10:25:52.427Z,102088.55
2024-02-19T10:28:22.732Z,102083.13
2024-02-19T10:30:50.326Z,102079.16
2024-02-19T10:33:18.092Z,102079.30
2024-02-19T10:35:46.755Z,102083.62
2024-02-19T10:38:17.526Z,102082.86
2024-02-19T10:40:44.990Z,102074.46
2024-02-19T10:43:12.895Z,102080.59
2024-02-19T10:45:41.138Z,102072.11
2024-02-19T10:48:09.314Z,102066.37
2024-02-19T10:50:37.701Z,102066.54
2024-02-19T10:53:06.443Z,102064.41
2024-02-19T10:55:45.748Z,102061.51
2024-02-19T10:58:26.980Z,102057.59
2024-02-19T11:00:56.327Z,102055.50
2024-02-19T11:03:25.314Z,102051.23
2024-02-19T11:05:52.884Z,102057.65
2024-02-19T11:08:21.559Z,102056.67
2024-02-19T11:10:49.892Z,102050.73
2024-02-19T11:13:26.860Z,102061.13
2024-02-19T11:15:54.769Z,102051.42
2024-02-19T11:18:23.889Z,102047.52
2024-02-19T11:20:52.063Z,102047.91
2024-02-19T11:23:20.436Z,102050.90
2024-02-19T11:25:48.049Z,102047.96
2024-02-19T11:28:15.929Z,102048.70
2024-02-19T11:30:43.878Z,102044.64
2024-02-19T11:33:13.078Z,102045.27
2024-02-19T11:35:43.662Z,102048.02
2024-02-19T11:41:16.160Z,102049.91
2024-02-19T11:43:44.921Z,102052.19
2024-02-19T11:46:14.188Z,102046.69
2024-02-19T11:48:41.824Z,102050.84
2024-02-19T11:51:11.199Z,102047.84
2024-02-19T11:53:38.968Z,102046.36
2024-02-19T11:56:07.035Z,102050.42
2024-02-19T11:58:34.700Z,102048.27
2024-02-19T12:01:03.681Z,102046.02
2024-02-19T12:03:31.563Z,102045.48
2024-02-19T12:05:59.578Z,102041.39
2024-02-19T12:08:30.756Z,102046.33
2024-02-19T12:10:59.676Z,102051.77
2024-02-19T12:13:27.671Z,102045.12
2024-02-19T12:15:55.593Z,102048.19
2024-02-19T12:18:25.205Z,102040.17
2024-02-19T12:20:53.361Z,102038.16
2024-02-19T12:23:20.729Z,102034.20
2024-02-19T12:25:48.127Z,102036.34
2024-02-19T12:28:15.565Z,102035.23
2024-02-19T12:30:43.076Z,102032.05
2024-02-19T12:33:12.743Z,102028.66
2024-02-19T12:35:41.995Z,102030.14
2024-02-19T12:38:10.186Z,102029.84
2024-02-19T12:40:38.370Z,102025.52
2024-02-19T12:43:07.710Z,102016.42
2024-02-19T12:45:35.379Z,102016.91
2024-02-19T12:48:03.089Z,102020.30
2024-02-19T12:50:34.107Z,102019.26
2024-02-19T12:53:02.003Z,102018.00
2024-02-19T12:55:30.113Z,102017.63
2024-02-19T12:57:59.127Z,102017.02
2024-02-19T13:00:26.949Z,102021.88
2024-02-19T13:02:55.619Z,102021.10
2024-02-19T13:05:23.538Z,102018.42
2024-02-19T13:07:52.663Z,102014.19
2024-02-19T13:10:20.152Z,102013.55
2024-02-19T13:12:47.785Z,102014.25
2024-02-19T13:15:16.043Z,102012.94
2024-02-19T13:17:46.575Z,102017.73
2024-02-19T13:20:16.905Z,102015.96
2024-02-19T13:22:44.895Z,102022.66
2024-02-19T13:25:12.876Z,102024.27
2024-02-19T13:27:40.653Z,102021.48
2024-02-19T13:30:11.012Z,102027.69
2024-02-19T13:32:38.844Z,102027.45
2024-02-19T13:35:11.551Z,102026.93
2024-02-19T13:37:40.362Z,102030.94
2024-02-19T13:40:10.893Z,102032.73
2024-02-19T13:42:39.279Z,102031.63
2024-02-19T13:45:10.971Z,102032.91
2024-02-19T13:47:42.019Z,102039.52
2024-02-19T13:50:12.936Z,102039.40
2024-02-19T13:52:41.281Z,102037.04
2024-02-19T13:55:09.069Z,102038.08
2024-02-19T13:57:36.891Z,102035.48
2024-02-19T14:00:06.753Z,102037.88
2024-02-19T14:02:34.859Z,102034.80
2024-02-19T14:05:03.581Z,102032.25
2024-02-19T14:07:31.630Z,102035.40
2024-02-19T14:09:59.647Z,102033.17
2024-02-19T14:12:28.062Z,102034.04
2024-02-19T14:14:56.581Z,102034.39
2024-02-19T14:17:24.419Z,102035.14
2024-02-19T14:19:52.813Z,102036.88
2024-02-19T14:22:20.788Z,102039.85
2024-02-19T14:24:48.996Z,102042.47
2024-02-19T14:27:17.476Z,102045.59
2024-02-19T14:29:44.947Z,102047.15
2024-02-19T14:32:14.416Z,102046.67
2024-02-19T14:34:42.651Z,102042.87
2024-02-19T14:37:10.072Z,102046.34
2024-02-19T14:39:37.915Z,102045.83
2024-02-19T14:42:06.956Z,102052.40
2024-02-19T14:44:35.842Z,102056.38
2024-02-19T14:47:07.241Z,102056.02
2024-02-19T14:49:35.229Z,102058.44
2024-02-19T14:52:03.719Z,102061.90
2024-02-19T14:54:31.399Z,102064.66
2024-02-19T14:57:00.264Z,102067.23
2024-02-19T14:59:29.447Z,102067.59
2024-02-19T15:01:57.556Z,102069.48
2024-02-19T15:04:26.195Z,102070.85
2024-02-19T15:06:55.113Z,102073.09
2024-02-19T15:09:22.814Z,102073.59
2024-02-19T15:11:50.701Z,102076.87
2024-02-19T15:14:20.070Z,102073.58
2024-02-19T15:16:48.100Z,102075.98
2024-02-19T15:19:15.745Z,102072.71
2024-02-19T15:21:43.268Z,102071.67
2024-02-19T15:24:10.909Z,102071.84
2024-02-19T15:26:38.351Z,102078.20
2024-02-19T15:29:05.746Z,102083.73
2024-02-19T15:31:35.921Z,102085.61
2024-02-19T15:34:03.752Z,102084.75
2024-02-19T15:36:31.489Z,102089.39
2024-02-19T15:38:58.866Z,102091.61
2024-02-19T15:41:31.909Z,102091.41
2024-02-19T15:44:01.816Z,102087.29
2024-02-19T15:46:29.289Z,102093.48
2024-02-19T15:48:57.703Z,102098.33
2024-02-19T15:51:25.967Z,102097.63
2024-02-19T15:53:54.818Z,102100.18
2024-02-19T15:56:22.257Z,102097.40
2024-02-19T15:58:50.558Z,102100.30
2024-02-19T16:01:19.242Z,102101.67
2024-02-19T16:03:47.435Z,102105.30
2024-02-19T16:06:14.971Z,102102.73
2024-02-19T16:08:42.969Z,102112.38
2024-02-19T16:11:11.271Z,102111.52
2024-02-19T16:13:41.024Z,102114.96
2024-02-19T16:16:11.867Z,102112.56
2024-02-19T16:18:39.761Z,102114.29
2024-02-19T16:21:07.567Z,102110.52
2024-02-19T16:23:35.290Z,102113.63
2024-02-19T16:26:05.655Z,102114.66
2024-02-19T16:28:34.139Z,102113.96
2024-02-19T16:31:03.358Z,102118.77
2024-02-19T16:33:31.052Z,102119.63
2024-02-19T16:35:59.543Z,102122.54
2024-02-19T16:38:28.830Z,102123.06
2024-02-19T16:40:57.483Z,102128.08
2024-02-19T16:43:28.456Z,102129.81
2024-02-19T16:45:56.386Z,102129.98
2024-02-19T16:48:23.960Z,102131.02
2024-02-19T16:50:51.881Z,102131.04
2024-02-19T16:53:20.282Z,102137.08
2024-02-19T16:55:47.866Z,102140.84
2024-02-19T16:58:19.041Z,102142.05
2024-02-19T17:00:53.325Z,102141.70
2024-02-19T17:03:21.518Z,102144.46
2024-02-19T17:05:50.015Z,102142.55
2024-02-19T17:08:17.659Z,102144.77
2024-02-19T17:10:45.948Z,102142.36
2024-02-19T17:13:16.313Z,102144.95
2024-02-19T17:15:44.067Z,102142.36
2024-02-19T17:18:11.745Z,102138.90
2024-02-19T17:20:39.975Z,102147.01
2024-02-19T17:23:12.266Z,102145.46
2024-02-19T17:25:41.661Z,102143.54
2024-02-19T17:28:09.271Z,102139.92
2024-02-19T17:30:37.200Z,102140.08
2024-02-19T17:33:04.918Z,102141.64
2024-02-19T17:35:33.161Z,102140.29
2024-02-19T17:38:03.244Z,102141.33
2024-02-19T17:40:30.930Z,102138.73
2024-02-19T17:42:58.425Z,102143.38
2024-02-19T17:45:26.387Z,102138.36
2024-02-19T17:47:54.368Z,102139.91
2024-02-19T17:50:22.187Z,102138.72
2024-02-19T17:52:49.600Z,102139.77
2024-02-19T17:55:17.623Z,102135.48
2024-02-19T17:57:46.150Z,102135.98
2024-02-19T18:00:14.365Z,102129.42
2024-02-19T18:02:42.777Z,102135.44
2024-02-19T18:05:10.408Z,102135.41
2024-02-19T18:07:38.340Z,102134.73
2024-02-19T18:10:06.317Z,102134.42
2024-02-19T18:12:34.174Z,102135.98
2024-02-19T18:15:01.751Z,102135.64
2024-02-19T18:17:29.256Z,102135.13
2024-02-19T18:19:57.090Z,102139.08
2024-02-19T18:22:24.895Z,102138.73
2024-02-19T18:24:53.247Z,102139.08
2024-02-19T18:27:22.046Z,102136.34
2024-02-19T18:29:49.633Z,102136.86
2024-02-19T18:32:19.495Z,102134.45
2024-02-19T18:34:48.158Z,102132.38
2024-02-19T18:37:16.434Z,102137.39
2024-02-19T18:39:44.306Z,102135.15
2024-02-19T18:42:13.037Z,102137.55
2024-02-19T18:44:40.884Z,102140.66
2024-02-19T18:47:08.294Z,102138.42
2024-02-19T18:49:37.494Z,102138.26
2024-02-19T18:52:05.031Z,102135.13
2024-02-19T18:54:33.553Z,102135.30
2024-02-19T18:57:08.187Z,102140.12
2024-02-19T18:59:38.298Z,102139.92
2024-02-19T19:02:06.859Z,102137.51
2024-02-19T19:04:36.450Z,102144.41
2024-02-19T19:07:04.320Z,102147.67
2024-02-19T19:09:32.789Z,102150.10
2024-02-19T19:12:02.391Z,102152.34
2024-02-19T19:14:29.802Z,102157.67
2024-02-19T19:16:57.856Z,102160.08
2024-02-19T19:19:25.420Z,102162.50
2024-02-19T19:21:53.232Z,102162.67
2024-02-19T19:24:20.777Z,102163.04
2024-02-19T19:26:48.243Z,102161.83
2024-02-19T19:29:15.668Z,102162.52
2024-02-19T19:31:43.382Z,102159.57
2024-02-19T19:34:11.596Z,102155.93
2024-02-19T19:36:39.062Z,102154.89
2024-02-19T19:39:08.146Z,102152.48
2024-02-19T19:41:36.628Z,102154.21
2024-02-19T19:44:06.622Z,102152.84
2024-02-19T19:46:34.608Z,102148.87
2024-02-19T19:49:06.115Z,102150.06
2024-02-19T19:51:33.767Z,102147.14
2024-02-19T19:54:01.332Z,102152.98
2024-02-19T19:56:28.716Z,102154.35
2024-02-19T19:58:58.806Z,102154.17
2024-02-19T20:01:26.939Z,102150.03
2024-02-19T20:03:55.751Z,102153.29
2024-02-19T20:06:24.006Z,102155.02
2024-02-19T20:08:53.965Z,102153.12
2024-02-19T20:11:22.885Z,102154.48
2024-02-19T20:13:51.921Z,102161.02
2024-02-19T20:16:20.573Z,102160.68
2024-02-19T20:18:49.140Z,102165.33
2024-02-19T20:21:22.406Z,102159.46
2024-02-19T20:23:49.818Z,102158.41
2024-02-19T20:26:21.315Z,102157.20
2024-02-19T20:28:48.717Z,102151.16
2024-02-19T20:31:16.931Z,102149.77
2024-02-19T20:33:45.152Z,102152.65
2024-02-19T20:36:12.976Z,102151.77
2024-02-19T20:38:40.447Z,102150.75
2024-02-19T20:41:07.863Z,102153.68
2024-02-19T20:43:36.426Z,102156.94
2024-02-19T20:46:04.236Z,102154.52
2024-02-19T20:48:33.398Z,102152.96
2024-02-19T20:51:00.873Z,102151.77
2024-02-19T20:53:28.754Z,102154.73
2024-02-19T20:55:57.968Z,102154.94
2024-02-19T20:58:25.903Z,102155.98
2024-02-19T21:00:53.420Z,102156.34
2024-02-19T21:03:22.612Z,102153.95
2024-02-19T21:05:53.535Z,102157.73
2024-02-19T21:08:21.792Z,102158.77
2024-02-19T21:10:49.495Z,102158.42
2024-02-19T21:13:20.553Z,102158.56
2024-02-19T21:15:48.047Z,102157.34
2024-02-19T21:18:27.371Z,102159.06
2024-02-19T21:21:03.397Z,102161.64
2024-02-19T21:23:31.456Z,102161.79
2024-02-19T21:26:00.178Z,102167.80
2024-02-19T21:28:28.250Z,102172.05
2024-02-19T21:30:56.065Z,102167.88
2024-02-19T21:33:23.613Z,102168.00
2024-02-19T21:35:51.126Z,102170.55
2024-02-19T21:38:19.627Z,102170.52
2024-02-19T21:40:47.513Z,102168.93
2024-02-19T21:43:14.939Z,102170.80
2024-02-19T21:45:44.964Z,102171.32
2024-02-19T21:48:12.354Z,102168.38
2024-02-19T21:50:39.980Z,102166.80
2024-02-19T21:53:07.552Z,102167.15
2024-02-19T21:55:35.617Z,102166.30
2024-02-19T21:58:04.315Z,102165.77
2024-02-19T22:00:32.197Z,102165.24
2024-02-19T22:03:02.213Z,102166.41
2024-02-19T22:05:30.432Z,102167.44
2024-02-19T22:07:59.450Z,102168.96
2024-02-19T22:10:27.777Z,102168.28
2024-02-19T22:12:55.788Z,102167.58
2024-02-19T22:15:23.240Z,102170.33
2024-02-19T22:17:53.541Z,102169.09
2024-02-19T22:20:21.600Z,102169.42
2024-02-19T22:22:49.794Z,102168.73
2024-02-19T22:25:17.825Z,102167.48
2024-02-19T22:27:50.649Z,102167.60
2024-02-19T22:30:19.700Z,102170.31
2024-02-19T22:32:47.163Z,102167.70
2024-02-19T22:35:14.715Z,102164.06
2024-02-19T22:37:42.426Z,102167.81
2024-02-19T22:40:11.123Z,102170.37
2024-02-19T22:42:38.919Z,102173.45
2024-02-19T22:45:08.102Z,102179.09
2024-02-19T22:47:35.531Z,102180.25
2024-02-19T22:50:05.707Z,102179.52
2024-02-19T22:52:34.067Z,102178.46
2024-02-19T22:55:01.985Z,102180.17
2024-02-19T22:57:29.563Z,102172.80
2024-02-19T22:59:57.363Z,102168.52
2024-02-19T23:02:25.022Z,102170.11
2024-02-19T23:04:52.361Z,102170.13
2024-02-19T23:07:19.853Z,102171.30
2024-02-19T23:09:47.232Z,102168.67
2024-02-19T23:12:15.467Z,102164.52
2024-02-19T23:14:42.839Z,102164.48
2024-02-19T23:17:10.931Z,102161.18
2024-02-19T23:19:39.113Z,102162.53
2024-02-19T23:22:07.583Z,102159.95
2024-02-19T23:24:36.336Z,102154.43
2024-02-19T23:27:07.520Z,102150.82
2024-02-19T23:29:34.974Z,102154.94
2024-02-19T23:32:02.767Z,102155.97
2024-02-19T23:34:31.487Z,102150.95
2024-02-19T23:36:58.971Z,102146.29
2024-02-19T23:39:26.971Z,102143.52
2024-02-19T23:41:54.259Z,102139.40
2024-02-19T23:44:21.574Z,102136.99
2024-02-19T23:46:50.292Z,102140.95
2024-02-19T23:49:18.196Z,102139.59
2024-02-19T23:51:49.491Z,102139.25
2024-02-19T23:54:17.284Z,102138.73
2024-02-19T23:58:01.290Z,102134.30
